Time;durP1;ratioP1;P1;durP2;ratioP2;P2;SDS_P1;SDS_P2;PMS_P1;PMS_P2;Temp;Humidity;BMP_temperature;BMP_pressure;BME280_temperature;BME280_humidity;BME280_pressure;Samples;Min_cycle;Max_cycle;Signal;HPM_P1;HPM_P2
2022/04/25 00:01:15;;;;;;;0.03;0.00;;;9.30;99.90;;;;;;5095229;28;20036;-79
2022/04/25 00:03:41;;;;;;;0.05;0.05;;;9.30;99.90;;;;;;5077959;28;20058;-79
2022/04/25 00:06:07;;;;;;;0.00;0.00;;;9.30;99.90;;;;;;5094786;28;20135;-78
2022/04/25 00:08:33;;;;;;;0.00;0.00;;;9.30;99.90;;;;;;5094637;28;20457;-79
2022/04/25 00:10:59;;;;;;;0.13;0.13;;;9.40;99.90;;;;;;5094728;28;20515;-79
2022/04/25 00:13:24;;;;;;;0.00;0.00;;;9.30;99.90;;;;;;5077511;28;20127;-79
2022/04/25 00:15:52;;;;;;;0.00;0.00;;;9.40;99.90;;;;;;5094940;28;20487;-78
2022/04/25 00:18:18;;;;;;;0.00;0.00;;;9.40;99.90;;;;;;5094609;28;20507;-79
2022/04/25 00:20:44;;;;;;;0.10;0.00;;;9.40;99.90;;;;;;5094476;28;20048;-79
2022/04/25 00:23:09;;;;;;;0.00;0.00;;;9.40;99.90;;;;;;5094616;28;20044;-78
2022/04/25 00:25:36;;;;;;;0.08;0.03;;;9.40;99.90;;;;;;5094098;28;20040;-79
2022/04/25 00:28:03;;;;;;;1.45;0.00;;;9.30;99.90;;;;;;5077426;28;20113;-79
2022/04/25 00:30:29;;;;;;;1.35;0.30;;;9.40;99.90;;;;;;5077208;28;20067;-79
2022/04/25 00:32:56;;;;;;;0.10;0.08;;;9.40;99.90;;;;;;5077175;28;20048;-79
2022/04/25 00:35:22;;;;;;;0.10;0.10;;;9.40;99.90;;;;;;5094251;28;20140;-79
2022/04/25 00:37:49;;;;;;;1.35;0.55;;;9.30;99.90;;;;;;5093982;28;20036;-79
2022/04/25 00:40:17;;;;;;;0.52;0.13;;;9.30;99.90;;;;;;5077351;28;20097;-79
2022/04/25 00:42:43;;;;;;;0.65;0.65;;;9.30;99.90;;;;;;5076974;28;20483;-79
2022/04/25 00:45:13;;;;;;;0.00;0.00;;;9.30;99.90;;;;;;5094026;28;20060;-79
2022/04/25 00:47:39;;;;;;;0.00;0.00;;;9.30;99.90;;;;;;5094040;28;20044;-79
2022/04/25 00:50:06;;;;;;;0.00;0.00;;;9.30;99.90;;;;;;5094035;28;20054;-79
2022/04/25 00:52:32;;;;;;;0.10;0.10;;;9.30;99.90;;;;;;5093500;28;20048;-79
2022/04/25 00:55:01;;;;;;;0.00;0.00;;;9.30;99.90;;;;;;5076852;28;20052;-78
2022/04/25 00:57:27;;;;;;;0.40;0.30;;;9.30;99.90;;;;;;5077088;28;20514;-79
2022/04/25 00:59:56;;;;;;;1.17;0.63;;;9.30;99.90;;;;;;5077088;28;20052;-79
2022/04/25 01:02:22;;;;;;;0.00;0.00;;;9.40;99.90;;;;;;5093776;28;20043;-79
2022/04/25 01:04:48;;;;;;;0.00;0.00;;;9.40;99.90;;;;;;5093922;28;20050;-79
2022/04/25 01:07:14;;;;;;;0.55;0.32;;;9.40;99.90;;;;;;5093804;28;20048;-79
2022/04/25 01:09:40;;;;;;;0.00;0.00;;;9.30;99.90;;;;;;5093401;28;20043;-79
2022/04/25 01:12:06;;;;;;;0.00;0.00;;;9.30;99.90;;;;;;5093450;28;20119;-79
2022/04/25 01:14:32;;;;;;;0.25;0.00;;;9.30;99.90;;;;;;5093565;28;20048;-79
2022/04/25 01:17:00;;;;;;;0.00;0.00;;;9.30;99.90;;;;;;5077013;28;20048;-79
2022/04/25 01:19:26;;;;;;;0.00;0.00;;;9.20;99.90;;;;;;5076569;28;20078;-79
2022/04/25 01:22:01;;;;;;;0.30;0.10;;;9.20;99.90;;;;;;5076656;28;20400;-79
2022/04/25 01:27:16;;;;;;;;;;;9.10;99.90;;;;;;5093768;28;20372;-79
2022/04/25 01:29:52;;;;;;;0.15;0.00;;;9.10;99.90;;;;;;5093480;28;19920;-79
2022/04/25 01:32:20;;;;;;;0.10;0.10;;;9.10;99.90;;;;;;5093265;28;20061;-79
2022/04/25 01:34:46;;;;;;;0.57;0.20;;;9.00;99.90;;;;;;5092983;28;20040;-79
2022/04/25 01:37:14;;;;;;;0.73;0.00;;;9.00;99.90;;;;;;5075655;28;20059;-79
2022/04/25 01:39:45;;;;;;;0.17;0.17;;;8.90;99.90;;;;;;5092903;28;20086;-79
2022/04/25 01:42:12;;;;;;;0.10;0.00;;;8.90;99.90;;;;;;5093088;28;20105;-79
2022/04/25 01:44:38;;;;;;;0.10;0.10;;;9.00;99.90;;;;;;5076293;28;20134;-79
2022/04/25 01:47:04;;;;;;;0.00;0.00;;;8.90;99.90;;;;;;5076240;28;20048;-79
2022/04/25 01:49:31;;;;;;;4.80;0.40;;;8.80;99.90;;;;;;5093665;28;20086;-79
2022/04/25 01:51:59;;;;;;;0.08;0.08;;;8.80;99.90;;;;;;5092498;28;20498;-79
2022/04/25 01:54:26;;;;;;;0.03;0.03;;;8.80;99.90;;;;;;5075722;28;20388;-79
2022/04/25 01:56:53;;;;;;;0.00;0.00;;;8.80;99.90;;;;;;5076210;28;20048;-79
2022/04/25 01:59:19;;;;;;;0.45;0.10;;;8.80;99.90;;;;;;5093023;28;20101;-79
2022/04/25 02:01:45;;;;;;;0.10;0.10;;;8.80;99.90;;;;;;5076008;28;20043;-79
2022/04/25 02:04:11;;;;;;;0.57;0.25;;;8.70;99.90;;;;;;5092961;28;20113;-79
2022/04/25 02:06:37;;;;;;;0.00;0.00;;;8.70;99.90;;;;;;5092919;28;20364;-79
2022/04/25 02:09:03;;;;;;;0.00;0.00;;;8.70;99.90;;;;;;5092698;28;20052;-79
2022/04/25 02:11:31;;;;;;;0.00;0.00;;;8.70;99.90;;;;;;5092525;28;20074;-79
2022/04/25 02:13:57;;;;;;;0.00;0.00;;;8.60;99.90;;;;;;5092780;28;20485;-79
2022/04/25 02:16:23;;;;;;;0.10;0.10;;;8.60;99.90;;;;;;5075663;28;20071;-79
2022/04/25 02:18:50;;;;;;;0.22;0.22;;;8.60;99.90;;;;;;5092805;28;20090;-79
2022/04/25 02:21:15;;;;;;;0.22;0.17;;;8.50;99.90;;;;;;5092825;28;20059;-79
2022/04/25 02:23:44;;;;;;;0.20;0.20;;;8.50;99.90;;;;;;5075711;28;20388;-79
2022/04/25 02:26:10;;;;;;;0.10;0.10;;;8.50;99.90;;;;;;5092560;28;20036;-79
2022/04/25 02:28:37;;;;;;;0.03;0.03;;;8.50;99.90;;;;;;5092483;28;20040;-79
2022/04/25 02:31:05;;;;;;;0.10;0.00;;;8.50;99.90;;;;;;5075723;28;20056;-79
2022/04/25 02:33:32;;;;;;;0.10;0.00;;;8.50;99.90;;;;;;5075380;28;20122;-79
2022/04/25 02:35:58;;;;;;;0.95;0.38;;;8.50;99.90;;;;;;5092174;28;20036;-79
2022/04/25 02:38:24;;;;;;;0.30;0.05;;;8.40;99.90;;;;;;5075968;28;20074;-79
2022/04/25 02:41:04;;;;;;;0.00;0.00;;;8.40;99.90;;;;;;5092567;28;20040;-80
2022/04/25 02:43:40;;;;;;;0.38;0.38;;;8.30;99.90;;;;;;5092795;28;20048;-79
2022/04/25 02:46:09;;;;;;;0.20;0.20;;;8.30;99.90;;;;;;5075736;28;20048;-79
2022/04/25 02:48:38;;;;;;;0.68;0.20;;;8.20;99.90;;;;;;5079470;28;20091;-79
2022/04/25 02:51:05;;;;;;;1.73;0.40;;;8.20;99.90;;;;;;5096206;28;20044;-79
2022/04/25 02:53:32;;;;;;;0.20;0.17;;;8.20;99.90;;;;;;5079163;28;20059;-79
2022/04/25 02:55:58;;;;;;;0.38;0.00;;;8.20;99.90;;;;;;5079262;28;20048;-79
2022/04/25 02:58:25;;;;;;;0.88;0.52;;;8.10;99.90;;;;;;5079518;28;20488;-79
2022/04/25 03:00:52;;;;;;;1.85;0.55;;;8.00;99.90;;;;;;5079265;28;20131;-79
2022/04/25 03:03:19;;;;;;;0.10;0.10;;;8.20;99.90;;;;;;5078786;28;20407;-79
2022/04/25 03:05:46;;;;;;;0.17;0.17;;;8.00;99.90;;;;;;5095855;28;20052;-79
2022/04/25 03:08:14;;;;;;;0.13;0.10;;;8.00;99.90;;;;;;5079223;28;20044;-80
2022/04/25 03:10:41;;;;;;;0.30;0.10;;;8.10;99.90;;;;;;5095901;28;20131;-79
2022/04/25 03:13:07;;;;;;;0.20;0.17;;;8.00;99.90;;;;;;5095622;28;20048;-79
2022/04/25 03:15:34;;;;;;;0.40;0.40;;;8.00;99.90;;;;;;5079149;28;20056;-79
2022/04/25 03:18:00;;;;;;;2.65;0.57;;;8.00;99.90;;;;;;5078874;28;20056;-79
2022/04/25 03:20:31;;;;;;;0.00;0.00;;;8.00;99.90;;;;;;5078904;28;20048;-79
2022/04/25 03:22:58;;;;;;;0.08;0.08;;;8.00;99.90;;;;;;5095971;28;20040;-79
2022/04/25 03:25:23;;;;;;;0.00;0.00;;;8.00;99.90;;;;;;5095731;28;20384;-79
2022/04/25 03:27:52;;;;;;;0.65;0.65;;;8.00;99.90;;;;;;5095626;28;20046;-79
2022/04/25 03:30:18;;;;;;;0.70;0.20;;;8.00;99.90;;;;;;5095564;28;20151;-80
2022/04/25 03:32:48;;;;;;;0.00;0.00;;;8.00;99.90;;;;;;5095305;28;20131;-79
2022/04/25 03:35:17;;;;;;;0.10;0.03;;;7.90;99.90;;;;;;5095449;28;20044;-79
2022/04/25 03:37:47;;;;;;;1.27;0.90;;;8.00;99.90;;;;;;5078551;28;20046;-79
2022/04/25 03:40:13;;;;;;;10.65;2.53;;;7.90;99.90;;;;;;5078267;28;20044;-79
2022/04/25 03:42:41;;;;;;;0.35;0.30;;;7.80;99.90;;;;;;5078535;28;20048;-79
2022/04/25 03:45:11;;;;;;;0.00;0.00;;;7.90;99.90;;;;;;5095487;28;20054;-79
2022/04/25 03:47:38;;;;;;;0.35;0.20;;;7.90;99.90;;;;;;5078793;28;20131;-79
2022/04/25 03:50:07;;;;;;;0.45;0.10;;;7.90;99.90;;;;;;5095380;28;20451;-79
2022/04/25 03:52:37;;;;;;;0.25;0.25;;;7.90;99.90;;;;;;5078026;28;20048;-79
2022/04/25 03:57:51;;;;;;;0.00;0.00;;;7.90;99.90;;;;;;5095314;28;20070;-79
2022/04/25 04:00:18;;;;;;;0.85;0.38;;;7.90;99.90;;;;;;5093974;28;20040;-79
2022/04/25 04:02:44;;;;;;;0.15;0.08;;;7.90;99.90;;;;;;5094774;28;20044;-79
2022/04/25 04:05:13;;;;;;;7.53;1.08;;;7.90;99.90;;;;;;5078030;28;20048;-79
2022/04/25 04:07:39;;;;;;;3.90;0.80;;;7.90;99.90;;;;;;5094882;28;20087;-80
2022/04/25 04:10:05;;;;;;;0.43;0.32;;;7.90;99.90;;;;;;5094680;28;20044;-79
2022/04/25 04:12:33;;;;;;;0.43;0.38;;;7.90;99.90;;;;;;5094482;28;20048;-79
2022/04/25 04:15:02;;;;;;;0.43;0.00;;;7.90;99.90;;;;;;5077633;28;20052;-80
2022/04/25 04:17:28;;;;;;;0.10;0.10;;;8.00;99.90;;;;;;5078003;28;20052;-79
2022/04/25 04:19:54;;;;;;;0.52;0.20;;;8.00;99.90;;;;;;5094642;28;20047;-79
2022/04/25 04:22:25;;;;;;;0.00;0.00;;;8.00;99.90;;;;;;5077731;28;20135;-79
2022/04/25 04:24:51;;;;;;;2.17;0.57;;;8.00;99.90;;;;;;5077473;28;20101;-79
2022/04/25 04:27:18;;;;;;;0.25;0.20;;;8.00;99.90;;;;;;5094508;28;20534;-79
2022/04/25 04:29:44;;;;;;;0.08;0.08;;;8.00;99.90;;;;;;5094371;28;20043;-79
2022/04/25 04:32:12;;;;;;;0.00;0.00;;;8.00;99.90;;;;;;5077472;28;20051;-79
2022/04/25 04:34:38;;;;;;;0.75;0.45;;;8.00;99.90;;;;;;5094411;28;20048;-79
2022/04/25 04:37:04;;;;;;;0.05;0.05;;;8.00;99.90;;;;;;5077273;28;20381;-79
2022/04/25 04:39:31;;;;;;;0.00;0.00;;;8.00;99.90;;;;;;5094486;28;20086;-79
2022/04/25 04:41:57;;;;;;;0.93;0.45;;;8.00;99.90;;;;;;5077360;28;20050;-79
2022/04/25 04:44:23;;;;;;;1.05;0.95;;;8.00;99.90;;;;;;5094271;28;20043;-79
2022/04/25 04:46:49;;;;;;;1.30;0.57;;;8.00;99.90;;;;;;5076946;28;20132;-79
2022/04/25 04:49:15;;;;;;;0.35;0.35;;;8.00;99.90;;;;;;5094115;28;20377;-79
2022/04/25 04:51:44;;;;;;;1.63;0.98;;;7.90;99.90;;;;;;5094233;28;20064;-79
2022/04/25 04:54:09;;;;;;;0.10;0.10;;;7.90;99.90;;;;;;5093719;28;20071;-79
2022/04/25 04:56:36;;;;;;;1.08;0.40;;;8.00;99.90;;;;;;5093591;28;20130;-79
2022/04/25 04:59:02;;;;;;;0.03;0.03;;;8.00;99.90;;;;;;5093671;28;20495;-79
2022/04/25 05:01:28;;;;;;;3.40;0.10;;;8.00;99.90;;;;;;5076859;28;20426;-80
2022/04/25 05:03:58;;;;;;;0.35;0.30;;;8.00;99.90;;;;;;5076917;28;20055;-79
2022/04/25 05:06:28;;;;;;;0.00;0.00;;;8.00;99.90;;;;;;5077069;28;20074;-80
2022/04/25 05:08:54;;;;;;;0.00;0.00;;;8.00;99.90;;;;;;5076919;28;20094;-79
2022/04/25 05:11:21;;;;;;;0.00;0.00;;;8.10;99.90;;;;;;5093308;28;20085;-79
2022/04/25 05:13:47;;;;;;;0.00;0.00;;;8.10;99.90;;;;;;5093531;28;20054;-79
2022/04/25 05:16:13;;;;;;;0.10;0.10;;;8.10;99.90;;;;;;5093377;28;20059;-79
2022/04/25 05:18:38;;;;;;;0.32;0.20;;;8.20;99.90;;;;;;5076465;28;20052;-79
2022/04/25 05:21:04;;;;;;;1.55;0.38;;;8.20;99.90;;;;;;5093181;28;20071;-79
2022/04/25 05:23:31;;;;;;;1.17;0.22;;;8.20;99.90;;;;;;5093410;28;20051;-79
2022/04/25 05:26:00;;;;;;;0.00;0.00;;;8.20;99.90;;;;;;5093804;28;20372;-80
2022/04/25 05:28:26;;;;;;;0.00;0.00;;;8.20;99.90;;;;;;5076473;28;20044;-79
2022/04/25 05:30:54;;;;;;;1.27;0.30;;;8.20;99.90;;;;;;5076370;28;20480;-80
2022/04/25 05:33:20;;;;;;;0.00;0.00;;;8.20;99.90;;;;;;5092941;28;20074;-79
2022/04/25 05:35:47;;;;;;;0.47;0.10;;;8.20;99.90;;;;;;5093055;28;20047;-80
2022/04/25 05:38:12;;;;;;;0.00;0.00;;;8.30;99.90;;;;;;5093192;28;20043;-84
2022/04/25 05:40:41;;;;;;;0.00;0.00;;;8.30;99.90;;;;;;5093024;28;20036;-80
2022/04/25 05:43:07;;;;;;;0.10;0.10;;;8.30;99.90;;;;;;5093185;28;20533;-81
2022/04/25 05:45:34;;;;;;;0.10;0.10;;;8.30;99.90;;;;;;5092890;28;20126;-81
2022/04/25 05:48:00;;;;;;;0.30;0.05;;;8.40;99.90;;;;;;5093076;28;20127;-81
2022/04/25 05:53:11;;;;;;;0.50;0.47;;;8.40;99.90;;;;;;5092502;28;20081;-80
2022/04/25 05:55:37;;;;;;;0.10;0.00;;;8.40;99.90;;;;;;5093072;28;20516;-80
2022/04/25 05:58:04;;;;;;;0.30;0.30;;;8.40;99.90;;;;;;5075791;28;20058;-80
2022/04/25 06:00:31;;;;;;;0.05;0.03;;;8.40;99.90;;;;;;5076727;28;20093;-81
2022/04/25 06:02:57;;;;;;;1.85;0.28;;;8.40;99.90;;;;;;5092605;28;20073;-80
2022/04/25 06:05:24;;;;;;;0.10;0.10;;;8.50;99.90;;;;;;5076051;28;20044;-80
2022/04/25 06:07:50;;;;;;;1.20;0.45;;;8.40;99.90;;;;;;5075912;28;20377;-80
2022/04/25 06:10:18;;;;;;;0.57;0.00;;;8.30;99.90;;;;;;5092795;28;20364;-80
2022/04/25 06:12:47;;;;;;;1.48;0.68;;;8.30;99.90;;;;;;5075233;28;20548;-80
2022/04/25 06:15:12;;;;;;;0.30;0.30;;;8.30;99.90;;;;;;5075793;28;20048;-80
2022/04/25 06:17:39;;;;;;;1.75;1.13;;;8.40;99.90;;;;;;5075435;28;20143;-80
2022/04/25 06:20:06;;;;;;;0.17;0.17;;;8.40;99.90;;;;;;5075898;28;20456;-81
2022/04/25 06:22:32;;;;;;;0.15;0.10;;;8.40;99.90;;;;;;5077507;28;20044;-80
2022/04/25 06:24:58;;;;;;;0.00;0.00;;;8.40;99.90;;;;;;5096055;28;20056;-80
2022/04/25 06:27:24;;;;;;;1.17;0.25;;;8.40;99.90;;;;;;5096713;28;20044;-80
2022/04/25 06:29:52;;;;;;;0.00;0.00;;;8.50;99.90;;;;;;5079880;28;20094;-80
2022/04/25 06:32:19;;;;;;;0.52;0.20;;;8.50;99.90;;;;;;5079825;28;20050;-80
2022/04/25 06:34:45;;;;;;;3.25;1.27;;;8.50;99.90;;;;;;5096665;28;20506;-80
2022/04/25 06:37:11;;;;;;;0.20;0.20;;;8.50;99.90;;;;;;5096473;28;20052;-80
2022/04/25 06:39:37;;;;;;;2.75;0.32;;;8.50;99.90;;;;;;5096488;28;20131;-80
2022/04/25 06:42:04;;;;;;;0.63;0.40;;;8.50;99.90;;;;;;5079556;28;20037;-80
2022/04/25 06:44:31;;;;;;;0.10;0.00;;;8.50;99.90;;;;;;5079573;28;20376;-80
2022/04/25 06:46:58;;;;;;;0.10;0.10;;;8.50;99.90;;;;;;5096936;28;20211;-80
2022/04/25 06:49:24;;;;;;;5.68;0.52;;;8.50;99.90;;;;;;5096441;28;20043;-80
2022/04/25 06:51:58;;;;;;;0.63;0.30;;;8.50;99.90;;;;;;5095890;28;20056;-81
2022/04/25 06:54:25;;;;;;;0.43;0.32;;;8.50;99.90;;;;;;5096257;28;20105;-80
2022/04/25 06:56:52;;;;;;;0.17;0.13;;;8.50;99.90;;;;;;5079199;28;20067;-81
2022/04/25 06:59:19;;;;;;;0.15;0.15;;;8.50;99.90;;;;;;5079012;28;20146;-80
2022/04/25 07:01:46;;;;;;;0.30;0.20;;;8.50;99.90;;;;;;5096099;28;20055;-80
2022/04/25 07:04:11;;;;;;;0.38;0.10;;;8.40;99.90;;;;;;5096324;28;20113;-80
2022/04/25 07:06:38;;;;;;;0.20;0.10;;;8.50;99.90;;;;;;5095512;28;20496;-81
2022/04/25 07:09:04;;;;;;;0.10;0.10;;;8.50;99.90;;;;;;5095634;28;20048;-80
2022/04/25 07:11:30;;;;;;;1.75;0.50;;;8.50;99.90;;;;;;5096017;28;20044;-80
2022/04/25 07:13:56;;;;;;;0.95;0.82;;;8.50;99.90;;;;;;5095146;28;20131;-80
2022/04/25 07:16:24;;;;;;;0.00;0.00;;;8.50;99.90;;;;;;5095751;28;20487;-80
2022/04/25 07:18:50;;;;;;;0.55;0.20;;;8.60;99.90;;;;;;5096073;28;20055;-81
2022/04/25 07:29:28;;;;;;;0.00;0.00;;;8.60;99.90;;;;;;5095824;28;20048;-80
2022/04/25 07:31:57;;;;;;;1.33;1.02;;;8.60;99.90;;;;;;5094690;28;20056;-80
2022/04/25 07:34:22;;;;;;;0.10;0.10;;;8.60;99.90;;;;;;5094237;28;20093;-80
2022/04/25 07:36:51;;;;;;;0.55;0.20;;;8.60;99.90;;;;;;5095578;28;20126;-80
2022/04/25 07:39:21;;;;;;;20.27;1.75;;;8.60;99.90;;;;;;5095477;28;20040;-80
2022/04/25 07:41:48;;;;;;;0.03;0.00;;;8.60;99.90;;;;;;5095524;28;20140;-80
2022/04/25 07:44:14;;;;;;;0.10;0.10;;;8.60;99.90;;;;;;5095238;28;20490;-80
2022/04/25 07:46:40;;;;;;;1.27;0.40;;;8.60;99.90;;;;;;5078380;28;20079;-80
2022/04/25 07:49:10;;;;;;;2.78;0.38;;;8.60;99.90;;;;;;5094485;28;20052;-80
2022/04/25 07:51:37;;;;;;;0.03;0.00;;;8.60;99.90;;;;;;5077906;28;20047;-80
2022/04/25 07:54:06;;;;;;;0.85;0.68;;;8.60;99.90;;;;;;5095140;28;20510;-80
2022/04/25 07:56:32;;;;;;;0.30;0.30;;;8.60;99.90;;;;;;5095003;28;20044;-80
2022/04/25 07:59:02;;;;;;;0.30;0.25;;;8.60;99.90;;;;;;5094972;28;20048;-80
2022/04/25 08:01:28;;;;;;;0.20;0.20;;;8.60;99.90;;;;;;5094591;28;20047;-80
2022/04/25 08:03:55;;;;;;;1.80;0.75;;;8.60;99.90;;;;;;5095410;28;20048;-80
2022/04/25 08:06:21;;;;;;;3.80;0.47;;;8.60;99.90;;;;;;5077473;28;20060;-80
2022/04/25 08:08:52;;;;;;;0.25;0.10;;;8.60;99.90;;;;;;5094900;28;20431;-80
2022/04/25 08:11:19;;;;;;;0.10;0.10;;;8.60;99.90;;;;;;5077940;28;20071;-80
2022/04/25 08:19:14;;;;;;;3.63;0.30;;;8.50;99.90;;;;;;5094799;28;20084;-81
2022/04/25 08:21:43;;;;;;;0.10;0.00;;;8.50;99.90;;;;;;5094585;28;20047;-80
2022/04/25 08:24:10;;;;;;;0.10;0.10;;;8.60;99.90;;;;;;5094241;28;20036;-80
2022/04/25 08:26:36;;;;;;;0.20;0.17;;;8.60;99.90;;;;;;5077548;28;20091;-81
2022/04/25 08:29:02;;;;;;;0.20;0.20;;;8.70;99.90;;;;;;5094365;28;20102;-82
2022/04/25 08:31:30;;;;;;;0.80;0.10;;;8.80;99.90;;;;;;5077223;28;20046;-80
2022/04/25 08:33:56;;;;;;;0.60;0.57;;;8.80;99.90;;;;;;5094245;28;20044;-81
2022/04/25 08:36:22;;;;;;;0.30;0.30;;;8.80;99.90;;;;;;5093842;28;20113;-81
2022/04/25 08:38:48;;;;;;;0.40;0.38;;;8.90;99.90;;;;;;5097089;28;20043;-81
2022/04/25 08:41:17;;;;;;;0.17;0.15;;;9.00;99.90;;;;;;5097725;28;20510;-81
2022/04/25 08:43:47;;;;;;;0.20;0.00;;;9.10;99.90;;;;;;5097684;28;20036;-81
2022/04/25 08:46:13;;;;;;;0.20;0.20;;;9.10;99.90;;;;;;5097221;28;20534;-81
2022/04/25 08:48:39;;;;;;;0.73;0.73;;;9.10;99.90;;;;;;5097748;28;20094;-80
2022/04/25 08:51:05;;;;;;;0.00;0.00;;;9.00;99.90;;;;;;5097342;28;20047;-82
2022/04/25 08:53:35;;;;;;;0.20;0.10;;;9.00;99.90;;;;;;5096707;28;20098;-82
2022/04/25 08:56:03;;;;;;;0.28;0.28;;;9.00;99.90;;;;;;5113872;28;20583;-82
2022/04/25 08:58:31;;;;;;;0.40;0.28;;;8.90;99.90;;;;;;5097061;28;20044;-82
2022/04/25 09:00:57;;;;;;;2.53;0.47;;;8.80;99.90;;;;;;5097346;28;20134;-81
2022/04/25 09:03:24;;;;;;;0.10;0.10;;;8.80;99.90;;;;;;5114325;28;20169;-81
2022/04/25 09:05:50;;;;;;;5.22;0.93;;;8.70;99.90;;;;;;5097625;28;20052;-81
2022/04/25 09:08:16;;;;;;;1.10;0.60;;;8.80;99.90;;;;;;5113866;28;20054;-81
2022/04/25 09:10:44;;;;;;;0.43;0.30;;;8.80;99.90;;;;;;5113926;28;20048;-81
2022/04/25 09:13:11;;;;;;;0.00;0.00;;;8.80;99.90;;;;;;5096870;28;20060;-81
2022/04/25 09:15:37;;;;;;;0.22;0.17;;;8.80;99.90;;;;;;5113919;28;20042;-81
2022/04/25 09:18:04;;;;;;;0.70;0.10;;;8.90;99.90;;;;;;5114002;28;20050;-81
2022/04/25 09:20:30;;;;;;;0.57;0.52;;;8.90;99.90;;;;;;5113619;28;20133;-81
2022/04/25 09:22:56;;;;;;;0.82;0.35;;;8.90;99.90;;;;;;5113849;28;20429;-81
2022/04/25 09:25:22;;;;;;;0.10;0.10;;;9.00;99.90;;;;;;5114186;28;20078;-81
2022/04/25 09:28:07;;;;;;;1.02;0.47;;;9.00;99.90;;;;;;5096952;28;20130;-81
2022/04/25 09:30:32;;;;;;;1.27;0.30;;;9.10;99.90;;;;;;5096829;28;20062;-81
2022/04/25 09:32:58;;;;;;;0.00;0.00;;;9.20;99.90;;;;;;5113376;28;20032;-81
2022/04/25 09:35:39;;;;;;;8.05;0.40;;;9.40;99.90;;;;;;5113854;28;20043;-81
2022/04/25 09:38:08;;;;;;;0.17;0.10;;;9.40;99.90;;;;;;5096573;28;20050;-81
2022/04/25 09:40:35;;;;;;;1.27;0.63;;;9.50;99.90;;;;;;5113716;28;20054;-81
2022/04/25 09:43:06;;;;;;;0.45;0.45;;;9.50;99.90;;;;;;5113544;28;20145;-81
2022/04/25 09:45:37;;;;;;;0.17;0.17;;;9.50;99.90;;;;;;5096966;28;20559;-81
2022/04/25 09:48:11;;;;;;;0.28;0.10;;;9.50;99.90;;;;;;5113415;28;20043;-81
2022/04/25 09:50:38;;;;;;;0.75;0.20;;;9.50;99.90;;;;;;5113552;28;20048;-81
2022/04/25 09:53:05;;;;;;;0.28;0.28;;;9.60;99.90;;;;;;5112938;28;20056;-81
2022/04/25 09:55:34;;;;;;;0.90;0.90;;;9.60;99.90;;;;;;5113197;28;20126;-81
2022/04/25 09:58:23;;;;;;;0.10;0.08;;;9.60;99.90;;;;;;5112133;28;20490;-81
2022/04/25 10:00:53;;;;;;;0.45;0.28;;;9.70;99.90;;;;;;5096032;28;20056;-81
2022/04/25 10:03:33;;;;;;;2.70;0.65;;;9.60;99.90;;;;;;5112620;28;20488;-81
2022/04/25 10:06:02;;;;;;;1.35;0.88;;;9.60;99.90;;;;;;5092560;28;20082;-81
2022/04/25 10:08:30;;;;;;;1.15;0.15;;;9.60;99.90;;;;;;5113091;28;20103;-81
2022/04/25 10:10:58;;;;;;;2.33;0.57;;;9.60;99.90;;;;;;5096235;28;20407;-81
2022/04/25 10:13:25;;;;;;;9.82;1.08;;;9.60;99.90;;;;;;5096029;28;20055;-81
2022/04/25 10:15:51;;;;;;;0.25;0.10;;;9.50;99.90;;;;;;5113029;28;20522;-81
2022/04/25 10:18:17;;;;;;;0.20;0.20;;;9.60;99.90;;;;;;5095924;28;20036;-81
2022/04/25 10:20:46;;;;;;;0.70;0.28;;;9.50;99.90;;;;;;5112669;28;20036;-81
2022/04/25 10:23:13;;;;;;;0.47;0.47;;;9.60;99.90;;;;;;5113172;28;20047;-82
2022/04/25 10:25:45;;;;;;;0.43;0.22;;;9.60;99.90;;;;;;5096293;28;20062;-82
2022/04/25 10:28:17;;;;;;;0.30;0.30;;;9.60;99.90;;;;;;5113070;28;20491;-81
2022/04/25 10:30:48;;;;;;;0.10;0.10;;;9.60;99.90;;;;;;5112930;28;20040;-82
2022/04/25 10:33:18;;;;;;;0.10;0.10;;;9.70;99.90;;;;;;5112550;28;20487;-81
2022/04/25 10:35:45;;;;;;;0.80;0.50;;;9.70;99.90;;;;;;5112709;28;20043;-81
2022/04/25 10:38:48;;;;;;;0.30;0.10;;;9.70;99.90;;;;;;5096260;28;20580;-82
2022/04/25 10:44:18;;;;;;;0.00;0.00;;;9.80;99.90;;;;;;5112913;28;20116;-82
2022/04/25 10:47:03;;;;;;;0.20;0.20;;;9.80;99.90;;;;;;5112687;28;20079;-82
2022/04/25 10:49:44;;;;;;;0.03;0.00;;;9.80;99.90;;;;;;5112923;28;20366;-82
2022/04/25 10:52:31;;;;;;;1.30;0.85;;;10.00;99.90;;;;;;5112253;28;20067;-81
2022/04/25 10:55:13;;;;;;;0.10;0.10;;;10.10;99.90;;;;;;5095777;28;20055;-81
2022/04/25 10:58:01;;;;;;;1.77;0.73;;;10.20;99.90;;;;;;5095794;28;20468;-81
2022/04/25 11:00:39;;;;;;;0.20;0.20;;;10.40;99.90;;;;;;5112592;28;20047;-82
2022/04/25 11:03:09;;;;;;;0.35;0.35;;;10.50;99.90;;;;;;5112391;28;20130;-81
2022/04/25 11:05:40;;;;;;;0.45;0.17;;;10.40;99.90;;;;;;5112520;28;20036;-81
2022/04/25 11:08:18;;;;;;;0.08;0.08;;;10.50;99.90;;;;;;5096733;28;20502;-82
2022/04/25 11:10:49;;;;;;;2.28;0.30;;;10.60;99.90;;;;;;5099729;28;20048;-82
2022/04/25 11:13:18;;;;;;;7.55;1.05;;;10.60;99.90;;;;;;5116065;28;20176;-82
2022/04/25 11:15:45;;;;;;;0.10;0.10;;;10.80;99.90;;;;;;5099062;28;20055;-82
2022/04/25 11:18:37;;;;;;;0.40;0.40;;;10.80;99.90;;;;;;5099394;28;20059;-82
2022/04/25 11:21:14;;;;;;;0.03;0.00;;;10.80;99.90;;;;;;5099213;28;20492;-81
2022/04/25 11:23:43;;;;;;;0.10;0.10;;;10.90;99.90;;;;;;5099415;28;20420;-82
2022/04/25 11:26:21;;;;;;;0.30;0.30;;;11.00;99.90;;;;;;5115644;28;20126;-81
2022/04/25 11:29:01;;;;;;;0.40;0.40;;;10.90;99.90;;;;;;5116237;28;20083;-81
2022/04/25 11:31:38;;;;;;;1.00;0.52;;;10.90;99.90;;;;;;5098960;28;20475;-81
2022/04/25 11:34:11;;;;;;;0.00;0.00;;;10.90;99.90;;;;;;5098846;28;20414;-82
2022/04/25 11:36:44;;;;;;;0.25;0.25;;;10.80;99.90;;;;;;5115627;28;20039;-82
2022/04/25 11:41:59;;;;;;;1.02;0.20;;;10.90;99.90;;;;;;5115790;28;20048;-81
2022/04/25 11:44:24;;;;;;;0.80;0.10;;;10.90;99.90;;;;;;5098774;28;20132;-82
2022/04/25 11:46:53;;;;;;;0.10;0.10;;;10.80;99.90;;;;;;5099403;28;20186;-81
2022/04/25 11:49:37;;;;;;;1.65;0.70;;;10.80;99.90;;;;;;5098631;28;20475;-81
2022/04/25 11:52:04;;;;;;;0.00;0.00;;;10.90;99.90;;;;;;5115468;28;20032;-81
2022/04/25 11:54:32;;;;;;;0.22;0.22;;;10.80;99.90;;;;;;5115310;28;20087;-81
2022/04/25 11:57:02;;;;;;;0.00;0.00;;;10.70;99.90;;;;;;5116150;28;20458;-82
2022/04/25 11:59:29;;;;;;;0.00;0.00;;;10.70;99.90;;;;;;5098388;28;20494;-82
2022/04/25 12:01:55;;;;;;;0.35;0.22;;;10.70;99.90;;;;;;5115450;28;20054;-82
2022/04/25 12:04:29;;;;;;;0.00;0.00;;;10.80;99.90;;;;;;5098408;28;20048;-82
2022/04/25 12:06:57;;;;;;;1.33;0.30;;;11.00;99.90;;;;;;5115214;28;20051;-82
2022/04/25 12:15:37;;;;;;;0.00;0.00;;;11.30;99.90;;;;;;5115115;28;20139;-82
2022/04/25 12:18:17;;;;;;;0.10;0.10;;;11.40;99.90;;;;;;5115344;28;20164;-82
2022/04/25 12:20:49;;;;;;;0.00;0.00;;;11.50;99.90;;;;;;5097456;28;20514;-83
2022/04/25 12:23:26;;;;;;;0.00;0.00;;;11.40;99.90;;;;;;5098032;28;20140;-82
2022/04/25 12:25:55;;;;;;;0.47;0.30;;;11.50;99.90;;;;;;5097913;28;20047;-82
2022/04/25 12:28:26;;;;;;;0.38;0.38;;;11.60;99.90;;;;;;5097444;28;20044;-82
2022/04/25 12:30:58;;;;;;;0.32;0.32;;;11.70;99.90;;;;;;5098085;28;20054;-83
2022/04/25 12:33:55;;;;;;;0.20;0.20;;;11.60;99.90;;;;;;5097637;28;20368;-83
2022/04/25 12:36:27;;;;;;;0.05;0.03;;;11.60;99.90;;;;;;5056338;28;20060;-82
2022/04/25 12:39:17;;;;;;;0.00;0.00;;;11.50;99.90;;;;;;5056806;28;20040;-83
2022/04/25 12:41:59;;;;;;;0.40;0.40;;;11.50;99.90;;;;;;5038938;28;20442;-82
2022/04/25 12:44:27;;;;;;;0.30;0.25;;;11.30;99.90;;;;;;5039468;28;20051;-83
2022/04/25 12:47:03;;;;;;;0.15;0.10;;;11.30;99.90;;;;;;5056329;28;20048;-82
2022/04/25 12:49:36;;;;;;;0.52;0.52;;;11.20;99.90;;;;;;5039774;28;20392;-82
2022/04/25 12:52:05;;;;;;;0.00;0.00;;;11.10;99.90;;;;;;5039419;28;20094;-82
2022/04/25 12:54:40;;;;;;;0.00;0.00;;;11.10;99.90;;;;;;5055521;28;20049;-82
2022/04/25 12:57:16;;;;;;;0.10;0.03;;;11.20;99.90;;;;;;5055374;28;20530;-82
2022/04/25 12:59:45;;;;;;;0.25;0.10;;;11.00;99.90;;;;;;5038819;28;20470;-82
2022/04/25 13:02:17;;;;;;;0.30;0.30;;;11.00;99.90;;;;;;5055437;28;20052;-82
2022/04/25 13:04:50;;;;;;;1.88;1.17;;;11.00;99.90;;;;;;5039360;28;20133;-82
2022/04/25 13:07:16;;;;;;;0.20;0.20;;;11.00;99.90;;;;;;5039132;28;20087;-82
2022/04/25 13:09:41;;;;;;;1.25;0.35;;;11.00;99.90;;;;;;5038978;28;20183;-82
2022/04/25 13:12:15;;;;;;;1.23;0.20;;;10.90;99.90;;;;;;5067852;28;20142;-82
2022/04/25 13:14:45;;;;;;;0.10;0.10;;;10.90;99.90;;;;;;5114127;28;20051;-82
2022/04/25 13:17:12;;;;;;;0.00;0.00;;;11.00;99.90;;;;;;5113684;28;20397;-82
2022/04/25 13:19:38;;;;;;;0.03;0.00;;;11.00;99.90;;;;;;5113965;28;20077;-82
2022/04/25 13:22:04;;;;;;;1.83;0.28;;;11.10;99.90;;;;;;5096551;28;20115;-82
2022/04/25 13:24:31;;;;;;;0.55;0.55;;;11.00;99.90;;;;;;5113907;28;20047;-82
2022/04/25 13:26:57;;;;;;;0.93;0.35;;;10.90;99.90;;;;;;5096746;28;20058;-84
2022/04/25 13:29:23;;;;;;;0.20;0.20;;;10.90;99.90;;;;;;5096788;28;20043;-81
2022/04/25 13:31:51;;;;;;;0.63;0.35;;;10.90;99.90;;;;;;5113041;28;20519;-81
2022/04/25 13:34:16;;;;;;;1.27;0.20;;;10.80;99.90;;;;;;5113275;28;20482;-81
2022/04/25 13:36:42;;;;;;;0.00;0.00;;;10.80;99.90;;;;;;5096595;28;20044;-81